sensor_id;sensor_type;location;lat;lon;timestamp;temperature;humidity
30694;DHT22;17446;48.022;-1.740;2023-01-24T00:00:29;4.40;99.90
30694;DHT22;17446;48.022;-1.740;2023-01-24T00:02:55;4.40;99.90
30694;DHT22;17446;48.022;-1.740;2023-01-24T00:05:20;4.40;99.90
30694;DHT22;17446;48.022;-1.740;2023-01-24T00:07:46;4.40;99.90
30694;DHT22;17446;48.022;-1.740;2023-01-24T00:10:12;4.40;99.90
30694;DHT22;17446;48.022;-1.740;2023-01-24T00:12:38;4.40;99.90
30694;DHT22;17446;48.022;-1.740;2023-01-24T00:15:04;4.40;99.90
30694;DHT22;17446;48.022;-1.740;2023-01-24T00:17:30;4.40;99.90
30694;DHT22;17446;48.022;-1.740;2023-01-24T00:19:55;4.40;99.90
30694;DHT22;17446;48.022;-1.740;2023-01-24T00:22:21;4.50;99.90
30694;DHT22;17446;48.022;-1.740;2023-01-24T00:24:47;4.50;99.90
30694;DHT22;17446;48.022;-1.740;2023-01-24T00:27:14;4.40;99.90
30694;DHT22;17446;48.022;-1.740;2023-01-24T00:29:40;4.50;99.90
30694;DHT22;17446;48.022;-1.740;2023-01-24T00:32:06;4.50;99.90
30694;DHT22;17446;48.022;-1.740;2023-01-24T00:34:32;4.50;99.90
30694;DHT22;17446;48.022;-1.740;2023-01-24T00:36:57;4.50;99.90
30694;DHT22;17446;48.022;-1.740;2023-01-24T00:39:26;4.50;99.90
30694;DHT22;17446;48.022;-1.740;2023-01-24T00:41:51;4.50;99.90
30694;DHT22;17446;48.022;-1.740;2023-01-24T00:44:17;4.50;99.90
30694;DHT22;17446;48.022;-1.740;2023-01-24T00:46:43;4.50;99.90
30694;DHT22;17446;48.022;-1.740;2023-01-24T00:49:08;4.40;99.90
30694;DHT22;17446;48.022;-1.740;2023-01-24T00:51:34;4.40;99.90
30694;DHT22;17446;48.022;-1.740;2023-01-24T00:54:00;4.40;99.90
30694;DHT22;17446;48.022;-1.740;2023-01-24T00:56:26;4.40;99.90
30694;DHT22;17446;48.022;-1.740;2023-01-24T00:58:51;4.40;99.90
30694;DHT22;17446;48.022;-1.740;2023-01-24T01:01:17;4.50;99.90
30694;DHT22;17446;48.022;-1.740;2023-01-24T01:03:43;4.40;99.90
30694;DHT22;17446;48.022;-1.740;2023-01-24T01:06:14;4.40;99.90
30694;DHT22;17446;48.022;-1.740;2023-01-24T01:08:40;4.40;99.90
30694;DHT22;17446;48.022;-1.740;2023-01-24T01:11:07;4.40;99.90
30694;DHT22;17446;48.022;-1.740;2023-01-24T01:13:32;4.40;99.90
30694;DHT22;17446;48.022;-1.740;2023-01-24T01:16:15;4.40;99.90
30694;DHT22;17446;48.022;-1.740;2023-01-24T01:18:45;4.40;99.90
30694;DHT22;17446;48.022;-1.740;2023-01-24T01:21:17;4.30;99.90
30694;DHT22;17446;48.022;-1.740;2023-01-24T01:23:43;4.20;99.90
30694;DHT22;17446;48.022;-1.740;2023-01-24T01:26:14;4.20;99.90
30694;DHT22;17446;48.022;-1.740;2023-01-24T01:28:40;4.20;99.90
30694;DHT22;17446;48.022;-1.740;2023-01-24T01:31:06;4.30;99.90
30694;DHT22;17446;48.022;-1.740;2023-01-24T01:33:31;4.20;99.90
30694;DHT22;17446;48.022;-1.740;2023-01-24T01:35:57;4.20;99.90
30694;DHT22;17446;48.022;-1.740;2023-01-24T01:38:23;4.20;99.90
30694;DHT22;17446;48.022;-1.740;2023-01-24T01:40:50;4.20;99.90
30694;DHT22;17446;48.022;-1.740;2023-01-24T01:43:18;4.20;99.90
30694;DHT22;17446;48.022;-1.740;2023-01-24T01:45:47;4.20;99.90
30694;DHT22;17446;48.022;-1.740;2023-01-24T01:48:32;4.20;99.90
30694;DHT22;17446;48.022;-1.740;2023-01-24T01:51:27;4.20;99.90
30694;DHT22;17446;48.022;-1.740;2023-01-24T01:54:08;4.10;99.90
30694;DHT22;17446;48.022;-1.740;2023-01-24T01:56:42;4.10;99.90
30694;DHT22;17446;48.022;-1.740;2023-01-24T01:59:20;4.00;99.90
30694;DHT22;17446;48.022;-1.740;2023-01-24T02:01:47;4.00;99.90
30694;DHT22;17446;48.022;-1.740;2023-01-24T02:04:18;4.00;99.90
30694;DHT22;17446;48.022;-1.740;2023-01-24T02:06:54;4.10;99.90
30694;DHT22;17446;48.022;-1.740;2023-01-24T02:09:23;4.10;99.90
30694;DHT22;17446;48.022;-1.740;2023-01-24T02:11:52;4.10;99.90
30694;DHT22;17446;48.022;-1.740;2023-01-24T02:14:20;4.10;99.90
30694;DHT22;17446;48.022;-1.740;2023-01-24T02:17:06;4.20;99.90
30694;DHT22;17446;48.022;-1.740;2023-01-24T02:19:39;4.10;99.90
30694;DHT22;17446;48.022;-1.740;2023-01-24T02:27:42;4.10;99.90
30694;DHT22;17446;48.022;-1.740;2023-01-24T02:30:08;4.10;99.90
30694;DHT22;17446;48.022;-1.740;2023-01-24T02:32:34;4.00;99.90
30694;DHT22;17446;48.022;-1.740;2023-01-24T02:34:59;4.00;99.90
30694;DHT22;17446;48.022;-1.740;2023-01-24T02:37:25;4.10;99.90
30694;DHT22;17446;48.022;-1.740;2023-01-24T02:39:58;4.10;99.90
30694;DHT22;17446;48.022;-1.740;2023-01-24T02:42:32;4.10;99.90
30694;DHT22;17446;48.022;-1.740;2023-01-24T02:47:44;4.20;99.90
30694;DHT22;17446;48.022;-1.740;2023-01-24T02:50:10;4.20;99.90
30694;DHT22;17446;48.022;-1.740;2023-01-24T02:52:37;4.20;99.90
30694;DHT22;17446;48.022;-1.740;2023-01-24T02:55:21;4.10;99.90
30694;DHT22;17446;48.022;-1.740;2023-01-24T02:57:47;4.00;99.90
30694;DHT22;17446;48.022;-1.740;2023-01-24T03:00:34;4.00;99.90
30694;DHT22;17446;48.022;-1.740;2023-01-24T03:03:00;4.00;99.90
30694;DHT22;17446;48.022;-1.740;2023-01-24T03:05:25;4.00;99.90
30694;DHT22;17446;48.022;-1.740;2023-01-24T03:08:07;4.00;99.90
30694;DHT22;17446;48.022;-1.740;2023-01-24T03:10:33;4.00;99.90
30694;DHT22;17446;48.022;-1.740;2023-01-24T03:13:00;3.90;99.90
30694;DHT22;17446;48.022;-1.740;2023-01-24T03:15:45;4.00;99.90
30694;DHT22;17446;48.022;-1.740;2023-01-24T03:18:29;3.90;99.90
30694;DHT22;17446;48.022;-1.740;2023-01-24T03:21:13;3.90;99.90
30694;DHT22;17446;48.022;-1.740;2023-01-24T03:23:57;3.90;99.90
30694;DHT22;17446;48.022;-1.740;2023-01-24T03:26:41;3.90;99.90
30694;DHT22;17446;48.022;-1.740;2023-01-24T03:29:25;3.90;99.90
30694;DHT22;17446;48.022;-1.740;2023-01-24T03:32:09;3.90;99.90
30694;DHT22;17446;48.022;-1.740;2023-01-24T03:34:53;3.90;99.90
30694;DHT22;17446;48.022;-1.740;2023-01-24T03:37:21;4.00;99.90
30694;DHT22;17446;48.022;-1.740;2023-01-24T03:40:07;4.00;99.90
30694;DHT22;17446;48.022;-1.740;2023-01-24T03:42:34;3.90;99.90
30694;DHT22;17446;48.022;-1.740;2023-01-24T03:45:00;4.00;99.90
30694;DHT22;17446;48.022;-1.740;2023-01-24T03:47:26;4.00;99.90
30694;DHT22;17446;48.022;-1.740;2023-01-24T03:49:51;4.00;99.90
30694;DHT22;17446;48.022;-1.740;2023-01-24T03:52:36;3.90;99.90
30694;DHT22;17446;48.022;-1.740;2023-01-24T03:55:01;4.00;99.90
30694;DHT22;17446;48.022;-1.740;2023-01-24T03:57:28;4.00;99.90
30694;DHT22;17446;48.022;-1.740;2023-01-24T03:59:54;4.00;99.90
30694;DHT22;17446;48.022;-1.740;2023-01-24T04:02:20;4.00;99.90
30694;DHT22;17446;48.022;-1.740;2023-01-24T04:04:47;4.00;99.90
30694;DHT22;17446;48.022;-1.740;2023-01-24T04:07:31;4.10;99.90
30694;DHT22;17446;48.022;-1.740;2023-01-24T04:09:56;4.00;99.90
30694;DHT22;17446;48.022;-1.740;2023-01-24T04:12:25;4.00;99.90
30694;DHT22;17446;48.022;-1.740;2023-01-24T04:14:51;4.00;99.90
30694;DHT22;17446;48.022;-1.740;2023-01-24T04:17:17;3.90;99.90
30694;DHT22;17446;48.022;-1.740;2023-01-24T04:19:42;3.90;99.90
30694;DHT22;17446;48.022;-1.740;2023-01-24T04:22:08;3.80;99.90
30694;DHT22;17446;48.022;-1.740;2023-01-24T04:24:34;3.80;99.90
30694;DHT22;17446;48.022;-1.740;2023-01-24T04:26:59;3.80;99.90
30694;DHT22;17446;48.022;-1.740;2023-01-24T04:29:25;3.90;99.90
30694;DHT22;17446;48.022;-1.740;2023-01-24T04:31:50;3.80;99.90
30694;DHT22;17446;48.022;-1.740;2023-01-24T04:34:16;3.90;99.90
30694;DHT22;17446;48.022;-1.740;2023-01-24T04:36:42;3.90;99.90
30694;DHT22;17446;48.022;-1.740;2023-01-24T04:39:07;3.90;99.90
30694;DHT22;17446;48.022;-1.740;2023-01-24T04:41:33;3.90;99.90
30694;DHT22;17446;48.022;-1.740;2023-01-24T04:43:58;3.90;99.90
30694;DHT22;17446;48.022;-1.740;2023-01-24T04:46:24;3.90;99.90
30694;DHT22;17446;48.022;-1.740;2023-01-24T04:48:50;3.90;99.90
30694;DHT22;17446;48.022;-1.740;2023-01-24T04:51:15;3.90;99.90
30694;DHT22;17446;48.022;-1.740;2023-01-24T04:53:41;3.90;99.90
30694;DHT22;17446;48.022;-1.740;2023-01-24T04:56:07;4.00;99.90
30694;DHT22;17446;48.022;-1.740;2023-01-24T04:58:34;4.00;99.90
30694;DHT22;17446;48.022;-1.740;2023-01-24T05:01:00;4.00;99.90
30694;DHT22;17446;48.022;-1.740;2023-01-24T05:03:26;4.00;99.90
30694;DHT22;17446;48.022;-1.740;2023-01-24T05:05:53;4.00;99.90
30694;DHT22;17446;48.022;-1.740;2023-01-24T05:08:20;4.00;99.90
30694;DHT22;17446;48.022;-1.740;2023-01-24T05:10:45;4.00;99.90
30694;DHT22;17446;48.022;-1.740;2023-01-24T05:13:11;4.00;99.90
30694;DHT22;17446;48.022;-1.740;2023-01-24T05:15:37;4.00;99.90
30694;DHT22;17446;48.022;-1.740;2023-01-24T05:18:03;4.00;99.90
30694;DHT22;17446;48.022;-1.740;2023-01-24T05:20:29;3.90;99.90
30694;DHT22;17446;48.022;-1.740;2023-01-24T05:22:56;3.90;99.90
30694;DHT22;17446;48.022;-1.740;2023-01-24T05:25:22;3.90;99.90
30694;DHT22;17446;48.022;-1.740;2023-01-24T05:27:47;3.90;99.90
30694;DHT22;17446;48.022;-1.740;2023-01-24T05:30:13;3.90;99.90
30694;DHT22;17446;48.022;-1.740;2023-01-24T05:32:39;3.90;99.90
30694;DHT22;17446;48.022;-1.740;2023-01-24T05:35:05;3.90;99.90
30694;DHT22;17446;48.022;-1.740;2023-01-24T05:37:31;3.90;99.90
30694;DHT22;17446;48.022;-1.740;2023-01-24T05:39:56;3.90;99.90
30694;DHT22;17446;48.022;-1.740;2023-01-24T05:42:22;3.90;99.90
30694;DHT22;17446;48.022;-1.740;2023-01-24T05:44:48;4.00;99.90
30694;DHT22;17446;48.022;-1.740;2023-01-24T05:47:13;4.00;99.90
30694;DHT22;17446;48.022;-1.740;2023-01-24T05:49:39;4.10;99.90
30694;DHT22;17446;48.022;-1.740;2023-01-24T05:52:05;4.10;99.90
30694;DHT22;17446;48.022;-1.740;2023-01-24T05:54:30;4.10;99.90
30694;DHT22;17446;48.022;-1.740;2023-01-24T05:56:56;4.10;99.90
30694;DHT22;17446;48.022;-1.740;2023-01-24T05:59:21;4.10;99.90
30694;DHT22;17446;48.022;-1.740;2023-01-24T06:01:47;4.10;99.90
30694;DHT22;17446;48.022;-1.740;2023-01-24T06:04:13;4.10;99.90
30694;DHT22;17446;48.022;-1.740;2023-01-24T06:06:39;4.00;99.90
30694;DHT22;17446;48.022;-1.740;2023-01-24T06:09:04;4.00;99.90
30694;DHT22;17446;48.022;-1.740;2023-01-24T06:11:30;4.00;99.90
30694;DHT22;17446;48.022;-1.740;2023-01-24T06:13:58;4.00;99.90
30694;DHT22;17446;48.022;-1.740;2023-01-24T06:16:25;4.00;99.90
30694;DHT22;17446;48.022;-1.740;2023-01-24T06:18:53;4.00;99.90
30694;DHT22;17446;48.022;-1.740;2023-01-24T06:24:00;4.10;99.90
30694;DHT22;17446;48.022;-1.740;2023-01-24T06:26:26;4.10;99.90
30694;DHT22;17446;48.022;-1.740;2023-01-24T06:28:52;4.10;99.90
30694;DHT22;17446;48.022;-1.740;2023-01-24T06:39:14;4.00;99.90
30694;DHT22;17446;48.022;-1.740;2023-01-24T06:41:41;4.00;99.90
30694;DHT22;17446;48.022;-1.740;2023-01-24T06:44:09;3.90;99.90
30694;DHT22;17446;48.022;-1.740;2023-01-24T06:46:35;3.90;99.90
30694;DHT22;17446;48.022;-1.740;2023-01-24T06:49:01;4.00;99.90
30694;DHT22;17446;48.022;-1.740;2023-01-24T06:51:26;4.00;99.90
30694;DHT22;17446;48.022;-1.740;2023-01-24T06:53:52;4.00;99.90
30694;DHT22;17446;48.022;-1.740;2023-01-24T06:56:17;4.00;99.90
30694;DHT22;17446;48.022;-1.740;2023-01-24T06:58:43;4.00;99.90
30694;DHT22;17446;48.022;-1.740;2023-01-24T07:01:09;4.00;99.90
30694;DHT22;17446;48.022;-1.740;2023-01-24T07:03:34;4.00;99.90
30694;DHT22;17446;48.022;-1.740;2023-01-24T07:06:00;4.00;99.90
30694;DHT22;17446;48.022;-1.740;2023-01-24T07:08:25;3.90;99.90
30694;DHT22;17446;48.022;-1.740;2023-01-24T07:10:51;3.90;99.90
30694;DHT22;17446;48.022;-1.740;2023-01-24T07:13:17;3.90;99.90
30694;DHT22;17446;48.022;-1.740;2023-01-24T07:15:43;3.90;99.90
30694;DHT22;17446;48.022;-1.740;2023-01-24T07:18:11;3.90;99.90
30694;DHT22;17446;48.022;-1.740;2023-01-24T07:20:37;3.90;99.90
30694;DHT22;17446;48.022;-1.740;2023-01-24T07:23:02;4.00;99.90
30694;DHT22;17446;48.022;-1.740;2023-01-24T07:25:28;4.00;99.90
30694;DHT22;17446;48.022;-1.740;2023-01-24T07:27:54;4.00;99.90
30694;DHT22;17446;48.022;-1.740;2023-01-24T07:30:20;4.00;99.90
30694;DHT22;17446;48.022;-1.740;2023-01-24T07:32:45;4.00;99.90
30694;DHT22;17446;48.022;-1.740;2023-01-24T07:35:11;4.00;99.90
30694;DHT22;17446;48.022;-1.740;2023-01-24T07:37:37;3.90;99.90
30694;DHT22;17446;48.022;-1.740;2023-01-24T07:40:03;3.90;99.90
30694;DHT22;17446;48.022;-1.740;2023-01-24T07:42:29;3.80;99.90
30694;DHT22;17446;48.022;-1.740;2023-01-24T07:44:54;3.80;99.90
30694;DHT22;17446;48.022;-1.740;2023-01-24T07:47:22;3.80;99.90
30694;DHT22;17446;48.022;-1.740;2023-01-24T07:49:48;3.80;99.90
30694;DHT22;17446;48.022;-1.740;2023-01-24T07:52:13;3.90;99.90
30694;DHT22;17446;48.022;-1.740;2023-01-24T07:54:39;3.90;99.90
30694;DHT22;17446;48.022;-1.740;2023-01-24T07:57:04;3.90;99.90
30694;DHT22;17446;48.022;-1.740;2023-01-24T07:59:30;4.00;99.90
30694;DHT22;17446;48.022;-1.740;2023-01-24T08:01:56;4.00;99.90
30694;DHT22;17446;48.022;-1.740;2023-01-24T08:04:21;4.00;99.90
30694;DHT22;17446;48.022;-1.740;2023-01-24T08:06:47;4.00;99.90
30694;DHT22;17446;48.022;-1.740;2023-01-24T08:09:31;4.00;99.90
30694;DHT22;17446;48.022;-1.740;2023-01-24T08:11:57;4.10;99.90
30694;DHT22;17446;48.022;-1.740;2023-01-24T08:14:22;4.10;99.90
30694;DHT22;17446;48.022;-1.740;2023-01-24T08:16:49;4.10;99.90
30694;DHT22;17446;48.022;-1.740;2023-01-24T08:19:14;4.10;99.90
30694;DHT22;17446;48.022;-1.740;2023-01-24T08:21:40;4.10;99.90
30694;DHT22;17446;48.022;-1.740;2023-01-24T08:24:06;4.10;99.90
30694;DHT22;17446;48.022;-1.740;2023-01-24T08:26:32;4.20;99.90
30694;DHT22;17446;48.022;-1.740;2023-01-24T08:28:57;4.20;99.90
30694;DHT22;17446;48.022;-1.740;2023-01-24T08:31:23;4.20;99.90
30694;DHT22;17446;48.022;-1.740;2023-01-24T08:33:48;4.20;99.90
30694;DHT22;17446;48.022;-1.740;2023-01-24T08:36:14;4.10;99.90
30694;DHT22;17446;48.022;-1.740;2023-01-24T08:38:40;4.20;99.90
30694;DHT22;17446;48.022;-1.740;2023-01-24T08:41:05;4.20;99.90
30694;DHT22;17446;48.022;-1.740;2023-01-24T08:43:32;4.20;99.90
30694;DHT22;17446;48.022;-1.740;2023-01-24T08:45:58;4.10;99.90
30694;DHT22;17446;48.022;-1.740;2023-01-24T08:48:24;4.10;99.90
30694;DHT22;17446;48.022;-1.740;2023-01-24T08:50:49;4.10;99.90
30694;DHT22;17446;48.022;-1.740;2023-01-24T08:53:15;4.10;99.90
30694;DHT22;17446;48.022;-1.740;2023-01-24T08:55:41;4.10;99.90
30694;DHT22;17446;48.022;-1.740;2023-01-24T08:58:06;4.10;99.90
30694;DHT22;17446;48.022;-1.740;2023-01-24T09:00:32;4.20;99.90
30694;DHT22;17446;48.022;-1.740;2023-01-24T09:02:58;4.30;99.90
30694;DHT22;17446;48.022;-1.740;2023-01-24T09:05:26;4.30;99.90
30694;DHT22;17446;48.022;-1.740;2023-01-24T09:07:52;4.40;99.90
30694;DHT22;17446;48.022;-1.740;2023-01-24T09:10:18;4.40;99.90
30694;DHT22;17446;48.022;-1.740;2023-01-24T09:12:43;4.40;99.90
30694;DHT22;17446;48.022;-1.740;2023-01-24T09:15:09;4.40;99.90
30694;DHT22;17446;48.022;-1.740;2023-01-24T09:17:36;4.40;99.90
30694;DHT22;17446;48.022;-1.740;2023-01-24T09:20:02;4.50;99.90
30694;DHT22;17446;48.022;-1.740;2023-01-24T09:22:28;4.50;99.90
30694;DHT22;17446;48.022;-1.740;2023-01-24T09:24:54;4.50;99.90
30694;DHT22;17446;48.022;-1.740;2023-01-24T09:27:19;4.60;99.90
30694;DHT22;17446;48.022;-1.740;2023-01-24T09:29:45;4.60;99.90
30694;DHT22;17446;48.022;-1.740;2023-01-24T09:32:10;4.60;99.90
30694;DHT22;17446;48.022;-1.740;2023-01-24T09:34:38;4.70;99.90
30694;DHT22;17446;48.022;-1.740;2023-01-24T09:37:06;4.80;99.90
30694;DHT22;17446;48.022;-1.740;2023-01-24T09:39:31;4.80;99.90
30694;DHT22;17446;48.022;-1.740;2023-01-24T09:42:03;4.80;99.90
30694;DHT22;17446;48.022;-1.740;2023-01-24T09:47:22;4.80;99.90
30694;DHT22;17446;48.022;-1.740;2023-01-24T09:49:53;4.80;99.90
30694;DHT22;17446;48.022;-1.740;2023-01-24T09:55:36;4.90;99.90
30694;DHT22;17446;48.022;-1.740;2023-01-24T09:58:04;5.00;99.90
30694;DHT22;17446;48.022;-1.740;2023-01-24T10:00:37;5.00;99.90
30694;DHT22;17446;48.022;-1.740;2023-01-24T10:03:12;5.00;99.90
30694;DHT22;17446;48.022;-1.740;2023-01-24T10:05:40;5.10;99.90
30694;DHT22;17446;48.022;-1.740;2023-01-24T10:21:30;5.20;99.90
30694;DHT22;17446;48.022;-1.740;2023-01-24T10:24:10;5.10;99.90
30694;DHT22;17446;48.022;-1.740;2023-01-24T10:26:50;5.20;99.90
30694;DHT22;17446;48.022;-1.740;2023-01-24T10:34:47;5.30;99.90
30694;DHT22;17446;48.022;-1.740;2023-01-24T10:37:29;5.40;99.90
30694;DHT22;17446;48.022;-1.740;2023-01-24T10:39:58;5.40;99.90
30694;DHT22;17446;48.022;-1.740;2023-01-24T10:42:28;5.40;99.90
30694;DHT22;17446;48.022;-1.740;2023-01-24T10:44:58;5.50;99.90
30694;DHT22;17446;48.022;-1.740;2023-01-24T10:48:16;5.50;99.90
30694;DHT22;17446;48.022;-1.740;2023-01-24T10:50:41;5.50;99.90
30694;DHT22;17446;48.022;-1.740;2023-01-24T10:53:25;5.60;99.90
30694;DHT22;17446;48.022;-1.740;2023-01-24T10:56:04;5.50;99.90
30694;DHT22;17446;48.022;-1.740;2023-01-24T10:58:37;5.40;99.90
30694;DHT22;17446;48.022;-1.740;2023-01-24T11:01:19;5.40;99.90
30694;DHT22;17446;48.022;-1.740;2023-01-24T11:03:47;5.40;99.90
30694;DHT22;17446;48.022;-1.740;2023-01-24T11:06:31;5.40;99.90
30694;DHT22;17446;48.022;-1.740;2023-01-24T11:09:13;5.40;99.90
30694;DHT22;17446;48.022;-1.740;2023-01-24T11:11:45;5.40;99.90
30694;DHT22;17446;48.022;-1.740;2023-01-24T11:14:19;5.50;99.90
30694;DHT22;17446;48.022;-1.740;2023-01-24T11:16:47;5.50;99.90
30694;DHT22;17446;48.022;-1.740;2023-01-24T11:19:27;5.60;99.90
30694;DHT22;17446;48.022;-1.740;2023-01-24T11:21:56;5.70;99.90
30694;DHT22;17446;48.022;-1.740;2023-01-24T11:24:22;5.70;99.90
30694;DHT22;17446;48.022;-1.740;2023-01-24T11:27:02;5.80;99.90
30694;DHT22;17446;48.022;-1.740;2023-01-24T11:29:28;5.80;99.90
30694;DHT22;17446;48.022;-1.740;2023-01-24T11:31:56;5.90;99.90
30694;DHT22;17446;48.022;-1.740;2023-01-24T11:35:11;5.90;99.90
30694;DHT22;17446;48.022;-1.740;2023-01-24T11:46:36;5.80;99.90
30694;DHT22;17446;48.022;-1.740;2023-01-24T11:49:15;5.90;99.90
30694;DHT22;17446;48.022;-1.740;2023-01-24T11:54:55;5.90;99.90
30694;DHT22;17446;48.022;-1.740;2023-01-24T12:03:16;6.20;99.90
30694;DHT22;17446;48.022;-1.740;2023-01-24T12:05:59;6.30;99.90
30694;DHT22;17446;48.022;-1.740;2023-01-24T12:17:07;6.40;99.90
30694;DHT22;17446;48.022;-1.740;2023-01-24T12:22:17;6.30;99.90
30694;DHT22;17446;48.022;-1.740;2023-01-24T12:24:46;6.30;99.90
30694;DHT22;17446;48.022;-1.740;2023-01-24T12:27:18;6.40;99.90
30694;DHT22;17446;48.022;-1.740;2023-01-24T12:30:01;6.40;99.90
30694;DHT22;17446;48.022;-1.740;2023-01-24T12:32:40;6.40;99.90
30694;DHT22;17446;48.022;-1.740;2023-01-24T12:38:24;6.50;99.90
30694;DHT22;17446;48.022;-1.740;2023-01-24T12:41:00;6.60;99.90
30694;DHT22;17446;48.022;-1.740;2023-01-24T12:46:25;6.60;99.90
30694;DHT22;17446;48.022;-1.740;2023-01-24T12:49:02;6.60;99.90
30694;DHT22;17446;48.022;-1.740;2023-01-24T12:51:56;6.60;99.90
30694;DHT22;17446;48.022;-1.740;2023-01-24T12:54:40;6.60;99.90
30694;DHT22;17446;48.022;-1.740;2023-01-24T12:57:30;6.70;99.90
30694;DHT22;17446;48.022;-1.740;2023-01-24T12:59:58;6.70;99.90
30694;DHT22;17446;48.022;-1.740;2023-01-24T13:03:27;6.70;99.90
30694;DHT22;17446;48.022;-1.740;2023-01-24T13:11:26;6.60;99.90
30694;DHT22;17446;48.022;-1.740;2023-01-24T13:14:33;6.60;99.90
30694;DHT22;17446;48.022;-1.740;2023-01-24T13:20:25;6.60;99.90
30694;DHT22;17446;48.022;-1.740;2023-01-24T13:28:32;6.70;99.90
30694;DHT22;17446;48.022;-1.740;2023-01-24T13:31:22;6.70;99.90
30694;DHT22;17446;48.022;-1.740;2023-01-24T13:33:59;6.70;99.90
30694;DHT22;17446;48.022;-1.740;2023-01-24T13:36:35;6.70;99.90
30694;DHT22;17446;48.022;-1.740;2023-01-24T13:39:03;6.80;99.90
30694;DHT22;17446;48.022;-1.740;2023-01-24T13:51:56;6.70;99.90
30694;DHT22;17446;48.022;-1.740;2023-01-24T13:59:36;6.80;99.90
30694;DHT22;17446;48.022;-1.740;2023-01-24T14:02:03;6.80;99.90
30694;DHT22;17446;48.022;-1.740;2023-01-24T14:04:41;6.70;99.90
30694;DHT22;17446;48.022;-1.740;2023-01-24T14:07:18;6.70;99.90
30694;DHT22;17446;48.022;-1.740;2023-01-24T14:09:45;6.60;99.90
30694;DHT22;17446;48.022;-1.740;2023-01-24T14:12:16;6.50;99.90
30694;DHT22;17446;48.022;-1.740;2023-01-24T14:20:22;6.50;99.90
30694;DHT22;17446;48.022;-1.740;2023-01-24T14:22:55;6.40;99.90
30694;DHT22;17446;48.022;-1.740;2023-01-24T14:30:54;6.40;99.90
30694;DHT22;17446;48.022;-1.740;2023-01-24T14:33:29;6.40;99.90
30694;DHT22;17446;48.022;-1.740;2023-01-24T14:38:23;6.40;99.90
30694;DHT22;17446;48.022;-1.740;2023-01-24T14:40:51;6.40;99.90
30694;DHT22;17446;48.022;-1.740;2023-01-24T14:43:18;6.50;99.90
30694;DHT22;17446;48.022;-1.740;2023-01-24T14:45:45;6.50;99.90
30694;DHT22;17446;48.022;-1.740;2023-01-24T14:48:23;6.40;99.90
30694;DHT22;17446;48.022;-1.740;2023-01-24T14:51:04;6.40;99.90
30694;DHT22;17446;48.022;-1.740;2023-01-24T14:53:33;6.40;99.90
30694;DHT22;17446;48.022;-1.740;2023-01-24T14:56:02;6.30;99.90
30694;DHT22;17446;48.022;-1.740;2023-01-24T14:58:30;6.30;99.90
30694;DHT22;17446;48.022;-1.740;2023-01-24T15:00:58;6.30;99.90
30694;DHT22;17446;48.022;-1.740;2023-01-24T15:03:31;6.20;99.90
30694;DHT22;17446;48.022;-1.740;2023-01-24T15:06:04;6.10;99.90
30694;DHT22;17446;48.022;-1.740;2023-01-24T15:08:31;6.10;99.90
30694;DHT22;17446;48.022;-1.740;2023-01-24T15:11:05;6.10;99.90
30694;DHT22;17446;48.022;-1.740;2023-01-24T15:13:35;6.00;99.90
30694;DHT22;17446;48.022;-1.740;2023-01-24T15:16:02;5.90;99.90
30694;DHT22;17446;48.022;-1.740;2023-01-24T15:18:41;6.00;99.90
30694;DHT22;17446;48.022;-1.740;2023-01-24T15:21:18;6.00;99.90
30694;DHT22;17446;48.022;-1.740;2023-01-24T15:23:49;6.10;99.90
30694;DHT22;17446;48.022;-1.740;2023-01-24T15:26:45;6.10;99.90
30694;DHT22;17446;48.022;-1.740;2023-01-24T15:29:42;6.10;99.90
30694;DHT22;17446;48.022;-1.740;2023-01-24T15:32:28;6.00;99.90
30694;DHT22;17446;48.022;-1.740;2023-01-24T15:40:32;5.80;99.90
30694;DHT22;17446;48.022;-1.740;2023-01-24T15:42:59;5.80;99.90
30694;DHT22;17446;48.022;-1.740;2023-01-24T15:45:54;5.80;99.90
30694;DHT22;17446;48.022;-1.740;2023-01-24T15:51:39;5.70;99.90
30694;DHT22;17446;48.022;-1.740;2023-01-24T15:54:10;5.60;99.90
30694;DHT22;17446;48.022;-1.740;2023-01-24T15:56:37;5.60;99.90
30694;DHT22;17446;48.022;-1.740;2023-01-24T15:59:15;5.50;99.90
30694;DHT22;17446;48.022;-1.740;2023-01-24T16:01:42;5.50;99.90
30694;DHT22;17446;48.022;-1.740;2023-01-24T16:04:18;5.50;99.90
30694;DHT22;17446;48.022;-1.740;2023-01-24T16:06:44;5.40;99.90
30694;DHT22;17446;48.022;-1.740;2023-01-24T16:09:11;5.40;99.90
30694;DHT22;17446;48.022;-1.740;2023-01-24T16:11:38;5.40;99.90
30694;DHT22;17446;48.022;-1.740;2023-01-24T16:14:06;5.50;99.90
30694;DHT22;17446;48.022;-1.740;2023-01-24T16:16:33;5.40;99.90
30694;DHT22;17446;48.022;-1.740;2023-01-24T16:18:59;5.40;99.90
30694;DHT22;17446;48.022;-1.740;2023-01-24T16:21:24;5.30;99.90
30694;DHT22;17446;48.022;-1.740;2023-01-24T16:23:50;5.40;99.90
30694;DHT22;17446;48.022;-1.740;2023-01-24T16:26:25;5.40;99.90
30694;DHT22;17446;48.022;-1.740;2023-01-24T16:28:51;5.40;99.90
30694;DHT22;17446;48.022;-1.740;2023-01-24T16:31:17;5.40;99.90
30694;DHT22;17446;48.022;-1.740;2023-01-24T16:33:43;5.40;99.90
30694;DHT22;17446;48.022;-1.740;2023-01-24T16:36:14;5.40;99.90
30694;DHT22;17446;48.022;-1.740;2023-01-24T16:38:43;5.40;99.90
30694;DHT22;17446;48.022;-1.740;2023-01-24T16:41:11;5.40;99.90
30694;DHT22;17446;48.022;-1.740;2023-01-24T16:43:39;5.40;99.90
30694;DHT22;17446;48.022;-1.740;2023-01-24T16:46:16;5.40;99.90
30694;DHT22;17446;48.022;-1.740;2023-01-24T16:48:41;5.50;99.90
30694;DHT22;17446;48.022;-1.740;2023-01-24T16:51:11;5.50;99.90
30694;DHT22;17446;48.022;-1.740;2023-01-24T16:53:37;5.50;99.90
30694;DHT22;17446;48.022;-1.740;2023-01-24T16:56:03;5.50;99.90
30694;DHT22;17446;48.022;-1.740;2023-01-24T16:58:29;5.50;99.90
30694;DHT22;17446;48.022;-1.740;2023-01-24T17:00:55;5.60;99.90
30694;DHT22;17446;48.022;-1.740;2023-01-24T17:03:21;5.60;99.90
30694;DHT22;17446;48.022;-1.740;2023-01-24T17:05:46;5.60;99.90
30694;DHT22;17446;48.022;-1.740;2023-01-24T17:08:12;5.60;99.90
30694;DHT22;17446;48.022;-1.740;2023-01-24T17:10:39;5.60;99.90
30694;DHT22;17446;48.022;-1.740;2023-01-24T17:13:06;5.50;99.90
30694;DHT22;17446;48.022;-1.740;2023-01-24T17:15:37;5.50;99.90
30694;DHT22;17446;48.022;-1.740;2023-01-24T17:18:04;5.50;99.90
30694;DHT22;17446;48.022;-1.740;2023-01-24T17:20:30;5.50;99.90
30694;DHT22;17446;48.022;-1.740;2023-01-24T17:22:57;5.50;99.90
30694;DHT22;17446;48.022;-1.740;2023-01-24T17:25:26;5.40;99.90
30694;DHT22;17446;48.022;-1.740;2023-01-24T17:27:51;5.40;99.90
30694;DHT22;17446;48.022;-1.740;2023-01-24T17:30:17;5.40;99.90
30694;DHT22;17446;48.022;-1.740;2023-01-24T17:32:43;5.40;99.90
30694;DHT22;17446;48.022;-1.740;2023-01-24T17:35:08;5.40;99.90
30694;DHT22;17446;48.022;-1.740;2023-01-24T17:37:34;5.40;99.90
30694;DHT22;17446;48.022;-1.740;2023-01-24T17:40:00;5.40;99.90
30694;DHT22;17446;48.022;-1.740;2023-01-24T17:42:25;5.50;99.90
30694;DHT22;17446;48.022;-1.740;2023-01-24T17:44:51;5.40;99.90
30694;DHT22;17446;48.022;-1.740;2023-01-24T17:47:17;5.40;99.90
30694;DHT22;17446;48.022;-1.740;2023-01-24T17:49:42;5.40;99.90
30694;DHT22;17446;48.022;-1.740;2023-01-24T17:52:08;5.40;99.90
30694;DHT22;17446;48.022;-1.740;2023-01-24T17:54:34;5.40;99.90
30694;DHT22;17446;48.022;-1.740;2023-01-24T17:56:59;5.40;99.90